This is the latest recevied weather packets stored in our database for station/object KC3VCX. If no packets are shown the sender has not sent any weather packets the latest 10 day(s).
| Time | Temp. | Humidity | Pressure | Rain* | Wind** | Luminosity | Snow |
|---|---|---|---|---|---|---|---|
| 1777237718 | 13.89° C | 64% | 1021.4 hPa | 0 mm | - | 421 W/m² | - |
| 1777237415 | 14.44° C | 63% | 1021.3 hPa | 0 mm | - | 435 W/m² | - |
| 1777237112 | 14.44° C | 64% | 1021.3 hPa | 0 mm | - | 447 W/m² | - |
| 1777236810 | 13.89° C | 65% | 1021.2 hPa | 0 mm | - | 464 W/m² | - |
| 1777236510 | 13.89° C | 64% | 1021.3 hPa | 0 mm | - | 477 W/m² | - |
| 1777236207 | 13.89° C | 65% | 1021.2 hPa | 0 mm | - | 493 W/m² | - |
| 1777235901 | 13.33° C | 66% | 1021.3 hPa | 0 mm | - | 506 W/m² | - |
| 1777235599 | 13.33° C | 65% | 1021.2 hPa | 0 mm | - | 515 W/m² | - |
| 1777235295 | 12.78° C | 66% | 1021.5 hPa | 0 mm | - | 528 W/m² | - |
| 1777234992 | 13.33° C | 66% | 1021.5 hPa | 0 mm | - | 542 W/m² | - |
| 1777234688 | 13.33° C | 66% | 1021.3 hPa | 0 mm | - | 558 W/m² | - |
| 1777234383 | 13.33° C | 65% | 1021.5 hPa | 0 mm | - | 574 W/m² | - |
| 1777234079 | 13.33° C | 65% | 1021.6 hPa | 0 mm | - | 588 W/m² | - |
| 1777233774 | 13.33° C | 66% | 1021.5 hPa | 0 mm | - | 598 W/m² | - |
| 1777233471 | 12.78° C | 66% | 1021.5 hPa | 0 mm | - | 576 W/m² | - |
| 1777233170 | 13.33° C | 65% | 1021.6 hPa | 0 mm | - | 617 W/m² | - |
| 1777232865 | 13.33° C | 65% | 1021.6 hPa | 0 mm | - | 356 W/m² | - |
| 1777232564 | 13.89° C | 65% | 1021.5 hPa | 0 mm | - | 645 W/m² | - |
| 1777232263 | 12.78° C | 66% | 1021.7 hPa | 0 mm | - | 641 W/m² | - |
| 1777231958 | 12.22° C | 66% | 1021.8 hPa | 0 mm | - | 666 W/m² | - |
| 1777231656 | 12.22° C | 66% | 1021.7 hPa | 0 mm | - | 672 W/m² | - |
| 1777231352 | 12.78° C | 66% | 1021.7 hPa | 0 mm | - | 717 W/m² | - |
| 1777231047 | 12.78° C | 65% | 1021.8 hPa | 0 mm | - | 727 W/m² | - |
| 1777230744 | 13.33° C | 63% | 1021.7 hPa | 0 mm | - | 728 W/m² | - |
| 1777230438 | 12.22° C | 66% | 1022 hPa | 0 mm | - | 744 W/m² | - |
* Rain latest hour (hover to see other rain measurements)
** Current wind speed in m/s (hover to see current wind gust speed)